createdAt,value
2018-05-03T00:01:16.718Z,1.93
2018-05-03T00:03:20.683Z,1.77
2018-05-03T00:05:25.402Z,1.93
2018-05-03T00:07:29.286Z,1.70
2018-05-03T00:09:33.253Z,1.80
2018-05-03T00:11:37.475Z,1.70
2018-05-03T00:13:42.105Z,2.07
2018-05-03T00:15:46.320Z,1.97
2018-05-03T00:17:51.499Z,2.20
2018-05-03T00:19:56.160Z,1.80
2018-05-03T00:21:59.989Z,2.00
2018-05-03T00:24:06.269Z,2.30
2018-05-03T00:26:10.185Z,2.07
2018-05-03T00:28:14.169Z,2.27
2018-05-03T00:30:18.476Z,2.73
2018-05-03T00:32:23.244Z,2.87
2018-05-03T00:34:27.892Z,3.10
2018-05-03T00:36:33.320Z,3.20
2018-05-03T00:38:37.225Z,3.00
2018-05-03T00:40:41.115Z,2.90
2018-05-03T00:42:45.594Z,3.20
2018-05-03T00:44:49.702Z,2.77
2018-05-03T00:46:53.570Z,3.27
2018-05-03T00:48:57.449Z,3.00
2018-05-03T00:51:02.144Z,3.17
2018-05-03T00:53:06.781Z,2.87
2018-05-03T00:55:11.030Z,3.30
2018-05-03T00:57:14.917Z,3.23
2018-05-03T00:59:18.890Z,3.27
2018-05-03T01:01:22.937Z,3.13
2018-05-03T01:03:27.714Z,3.10
2018-05-03T01:05:31.622Z,3.20
2018-05-03T01:07:36.651Z,3.00
2018-05-03T01:09:40.543Z,2.77
2018-05-03T01:11:44.482Z,3.20
2018-05-03T01:13:48.843Z,3.30
2018-05-03T01:18:19.014Z,3.17
2018-05-03T01:20:23.461Z,3.00
2018-05-03T01:22:27.350Z,3.30
2018-05-03T01:24:32.585Z,3.57
2018-05-03T01:26:38.069Z,3.23
2018-05-03T01:29:14.751Z,3.13
2018-05-03T01:31:18.665Z,3.20
2018-05-03T01:36:28.949Z,3.27
2018-05-03T01:38:33.115Z,3.47
2018-05-03T01:40:39.005Z,2.93
2018-05-03T01:42:42.841Z,3.03
2018-05-03T01:44:46.677Z,3.07
2018-05-03T01:46:56.735Z,3.30
2018-05-03T01:49:01.413Z,3.20
2018-05-03T01:51:08.122Z,3.23
2018-05-03T01:53:13.119Z,3.53
2018-05-03T01:55:16.863Z,3.27
2018-05-03T01:57:21.558Z,2.83
2018-05-03T01:59:25.387Z,2.93
2018-05-03T02:01:29.962Z,3.37
2018-05-03T02:03:33.850Z,3.60
2018-05-03T02:05:38.012Z,3.70
2018-05-03T02:07:43.398Z,3.10
2018-05-03T02:09:47.227Z,3.00
2018-05-03T02:11:52.379Z,3.10
2018-05-03T02:13:56.376Z,3.10
2018-05-03T02:16:00.965Z,3.50
2018-05-03T02:18:05.622Z,3.23
2018-05-03T02:20:09.403Z,3.50
2018-05-03T02:22:13.321Z,2.37
2018-05-03T02:24:18.992Z,3.30
2018-05-03T02:26:24.273Z,3.57
2018-05-03T02:28:29.697Z,0.00
2018-05-03T02:30:35.119Z,0.10
2018-05-03T02:32:40.692Z,0.10
2018-05-03T02:34:44.473Z,0.00
2018-05-03T02:36:50.935Z,0.00
2018-05-03T02:38:57.326Z,0.10
2018-05-03T02:41:01.175Z,0.00
2018-05-03T02:43:07.343Z,0.07
2018-05-03T02:45:13.316Z,0.00
2018-05-03T02:47:17.978Z,0.00
2018-05-03T02:49:23.759Z,0.00
2018-05-03T02:51:28.417Z,0.00
2018-05-03T02:53:34.603Z,0.00
2018-05-03T02:55:39.676Z,0.10
2018-05-03T03:04:19.694Z,0.00
2018-05-03T03:07:35.129Z,0.00
2018-05-03T03:09:47.373Z,0.00
2018-05-03T03:16:14.697Z,0.00
2018-05-03T03:20:37.325Z,0.00
2018-05-03T03:24:56.520Z,0.00
2018-05-03T03:29:46.926Z,0.00
2018-05-03T03:34:05.772Z,0.00
2018-05-03T03:36:52.878Z,0.00
2018-05-03T03:42:12.888Z,0.00
2018-05-03T03:44:28.333Z,0.00
2018-05-03T03:46:32.197Z,0.50
2018-05-03T03:48:36.896Z,0.00
2018-05-03T03:50:41.617Z,0.00
2018-05-03T03:52:48.424Z,0.00
2018-05-03T03:54:53.111Z,0.10
2018-05-03T03:56:57.338Z,0.00
2018-05-03T03:59:01.264Z,0.00
2018-05-03T04:01:06.530Z,0.00
2018-05-03T04:03:10.812Z,0.10
2018-05-03T04:05:16.086Z,0.00
2018-05-03T04:07:20.383Z,0.10
2018-05-03T04:09:24.521Z,0.00
2018-05-03T04:11:28.363Z,0.10
2018-05-03T04:13:32.867Z,0.03
2018-05-03T04:15:37.164Z,0.10
2018-05-03T04:17:49.866Z,0.00
2018-05-03T04:20:04.284Z,0.00
2018-05-03T04:23:12.309Z,0.10
2018-05-03T04:26:23.053Z,0.00
2018-05-03T04:28:29.007Z,0.10
2018-05-03T04:32:37.541Z,0.00
2018-05-03T04:34:42.434Z,0.00
2018-05-03T04:36:46.189Z,0.03
2018-05-03T04:38:49.957Z,0.10
2018-05-03T04:40:53.718Z,0.00
2018-05-03T04:42:57.569Z,0.40
2018-05-03T04:45:03.785Z,0.00
2018-05-03T04:47:08.989Z,0.10
2018-05-03T04:49:12.812Z,0.10
2018-05-03T04:51:16.669Z,0.00
2018-05-03T04:53:21.699Z,0.10
2018-05-03T04:55:25.531Z,0.17
2018-05-03T04:57:30.107Z,0.00
2018-05-03T04:59:35.193Z,0.00
2018-05-03T05:01:39.022Z,0.00
2018-05-03T05:03:42.842Z,0.00
2018-05-03T05:05:46.654Z,0.10
2018-05-03T05:07:50.481Z,0.10
2018-05-03T05:09:55.044Z,0.03
2018-05-03T05:11:58.898Z,0.10
2018-05-03T05:14:02.677Z,0.00
2018-05-03T05:16:06.601Z,0.00
2018-05-03T05:18:11.951Z,0.00
2018-05-03T05:20:16.473Z,0.00
2018-05-03T05:22:20.310Z,0.00
2018-05-03T05:24:25.686Z,0.20
2018-05-03T05:26:30.483Z,0.00
2018-05-03T05:28:34.477Z,0.10
2018-05-03T05:30:43.747Z,0.10
2018-05-03T05:32:47.746Z,0.00
2018-05-03T05:34:51.564Z,0.00
2018-05-03T05:36:55.818Z,0.27
2018-05-03T05:39:00.557Z,0.00
2018-05-03T05:41:05.212Z,0.63
2018-05-03T05:43:09.306Z,0.00
2018-05-03T05:45:16.092Z,0.10
2018-05-03T05:47:21.039Z,0.00
2018-05-03T05:49:26.939Z,0.00
2018-05-03T05:51:31.666Z,0.00
2018-05-03T05:53:35.547Z,0.20
2018-05-03T05:55:39.624Z,0.00
2018-05-03T05:57:44.301Z,0.10
2018-05-03T05:59:48.203Z,0.20
2018-05-03T06:01:52.047Z,0.13
2018-05-03T06:03:55.849Z,0.00
2018-05-03T06:06:00.686Z,0.00
2018-05-03T06:08:04.880Z,0.10
2018-05-03T06:10:08.750Z,1.00
2018-05-03T06:12:13.474Z,0.10
2018-05-03T06:14:18.510Z,0.00
2018-05-03T06:16:22.863Z,0.00
2018-05-03T06:18:26.681Z,0.03
2018-05-03T06:20:32.708Z,0.10
2018-05-03T06:22:37.317Z,1.33
2018-05-03T06:24:41.949Z,0.23
2018-05-03T06:26:45.712Z,0.37
2018-05-03T06:28:50.783Z,0.30
2018-05-03T06:30:54.773Z,0.30
2018-05-03T06:32:59.063Z,1.20
2018-05-03T06:35:03.804Z,0.27
2018-05-03T06:37:07.640Z,0.10
2018-05-03T06:39:11.737Z,0.07
2018-05-03T06:41:15.720Z,0.00
2018-05-03T06:43:20.303Z,0.83
2018-05-03T06:45:25.755Z,0.00
2018-05-03T06:47:29.653Z,0.40
2018-05-03T06:49:33.541Z,4.27
2018-05-03T06:51:38.713Z,0.20
2018-05-03T06:53:42.677Z,1.33
2018-05-03T06:55:46.544Z,0.30
2018-05-03T06:57:52.020Z,0.10
2018-05-03T06:59:55.962Z,0.10
2018-05-03T07:01:59.883Z,0.53
2018-05-03T07:04:04.186Z,0.27
2018-05-03T07:06:07.979Z,2.00
2018-05-03T07:08:11.941Z,0.33
2018-05-03T07:10:16.165Z,0.47
2018-05-03T07:12:20.773Z,0.93
2018-05-03T07:14:27.308Z,0.00
2018-05-03T07:16:31.464Z,0.20
2018-05-03T07:18:35.362Z,0.70
2018-05-03T07:20:51.883Z,0.10
2018-05-03T07:22:56.027Z,0.83
2018-05-03T07:24:59.862Z,0.47
2018-05-03T07:27:04.546Z,0.37
2018-05-03T07:29:09.768Z,0.63
2018-05-03T07:31:13.709Z,0.40
2018-05-03T07:33:17.572Z,0.30
2018-05-03T07:35:21.837Z,0.50
2018-05-03T07:37:26.418Z,1.10
2018-05-03T07:39:30.341Z,0.33
2018-05-03T07:41:34.331Z,0.63
2018-05-03T07:43:39.866Z,0.10
2018-05-03T07:45:44.582Z,0.30
2018-05-03T07:47:49.752Z,0.07
2018-05-03T07:49:56.264Z,0.60
2018-05-03T07:52:00.190Z,0.10
2018-05-03T07:54:04.323Z,0.20
2018-05-03T07:56:09.055Z,0.77
2018-05-03T07:58:13.098Z,0.30
2018-05-03T08:00:18.494Z,1.10
2018-05-03T08:02:22.765Z,0.10
2018-05-03T08:04:28.880Z,0.20
2018-05-03T08:06:34.075Z,0.50
2018-05-03T08:08:39.151Z,1.70
2018-05-03T08:10:43.164Z,0.30
2018-05-03T08:12:47.726Z,0.10
2018-05-03T08:14:51.629Z,0.23
2018-05-03T08:16:57.058Z,1.07
2018-05-03T08:19:02.421Z,0.43
2018-05-03T08:21:06.332Z,0.10
2018-05-03T08:23:11.082Z,0.10
2018-05-03T08:25:23.394Z,0.20
2018-05-03T08:27:28.175Z,1.30
2018-05-03T08:29:32.520Z,0.60
2018-05-03T08:31:36.871Z,1.23
2018-05-03T08:33:40.825Z,0.50
2018-05-03T08:35:44.832Z,0.33
2018-05-03T08:37:48.721Z,0.10
2018-05-03T08:39:52.625Z,0.73
2018-05-03T08:41:56.605Z,0.93
2018-05-03T08:44:00.794Z,0.20
2018-05-03T08:46:07.748Z,0.10
2018-05-03T08:48:11.557Z,0.60
2018-05-03T08:50:21.061Z,0.90
2018-05-03T08:52:25.606Z,0.50
2018-05-03T08:54:30.345Z,0.30
2018-05-03T08:56:34.585Z,0.63
2018-05-03T08:58:38.654Z,1.07
2018-05-03T09:00:42.565Z,0.10
2018-05-03T09:02:46.412Z,0.80
2018-05-03T09:04:50.307Z,1.57
2018-05-03T09:06:54.216Z,0.93
2018-05-03T09:08:59.340Z,0.23
2018-05-03T09:11:03.313Z,0.73
2018-05-03T09:13:08.318Z,0.80
2018-05-03T09:15:15.110Z,2.17
2018-05-03T09:17:20.553Z,0.30
2018-05-03T09:19:24.549Z,0.20
2018-05-03T09:21:28.722Z,1.07
2018-05-03T09:23:32.615Z,1.03
2018-05-03T09:25:36.441Z,1.23
2018-05-03T09:27:41.358Z,0.93
2018-05-03T09:29:45.204Z,0.57
2018-05-03T09:31:49.274Z,1.20
2018-05-03T09:33:53.716Z,0.50
2018-05-03T09:35:59.009Z,2.37
2018-05-03T09:38:02.862Z,0.57
2018-05-03T09:40:08.596Z,0.83
2018-05-03T09:42:13.180Z,0.30
2018-05-03T09:44:17.031Z,0.10
2018-05-03T09:46:21.913Z,0.23
2018-05-03T09:48:25.709Z,1.37
2018-05-03T09:50:29.461Z,0.00
2018-05-03T09:52:34.312Z,0.10
2018-05-03T09:54:38.500Z,0.10
2018-05-03T09:56:42.336Z,2.47
2018-05-03T09:58:49.128Z,0.47
2018-05-03T10:00:53.086Z,0.40
2018-05-03T10:02:57.753Z,0.37
2018-05-03T10:05:02.038Z,0.60
2018-05-03T10:07:06.011Z,0.93
2018-05-03T10:09:10.088Z,1.67
2018-05-03T10:11:18.783Z,0.30
2018-05-03T10:13:23.029Z,0.47
2018-05-03T10:15:26.884Z,1.00
2018-05-03T10:17:31.582Z,0.83
2018-05-03T10:19:37.159Z,1.73
2018-05-03T10:21:41.066Z,1.80
2018-05-03T10:23:45.063Z,1.40
2018-05-03T10:25:49.577Z,0.50
2018-05-03T10:27:54.177Z,0.77
2018-05-03T10:29:57.967Z,0.30
2018-05-03T10:32:04.180Z,0.20
2018-05-03T10:34:08.610Z,0.10
2018-05-03T10:36:12.572Z,1.50
2018-05-03T10:38:17.083Z,1.10
2018-05-03T10:40:20.945Z,0.60
2018-05-03T10:42:24.759Z,1.40
2018-05-03T10:44:28.914Z,0.60
2018-05-03T10:46:35.940Z,0.60
2018-05-03T10:48:39.877Z,0.20
2018-05-03T10:50:45.018Z,1.60
2018-05-03T10:52:50.383Z,0.30
2018-05-03T10:54:54.249Z,1.60
2018-05-03T10:56:59.524Z,0.13
2018-05-03T10:59:04.284Z,1.00
2018-05-03T11:01:09.249Z,1.37
2018-05-03T11:03:13.246Z,1.40
2018-05-03T11:05:17.237Z,0.83
2018-05-03T11:07:21.958Z,0.53
2018-05-03T11:09:27.185Z,0.30
2018-05-03T11:11:31.090Z,0.10
2018-05-03T11:13:34.917Z,1.07
2018-05-03T11:15:39.707Z,0.20
2018-05-03T11:17:43.621Z,1.53
2018-05-03T11:19:47.573Z,0.43
2018-05-03T11:21:51.850Z,0.17
2018-05-03T11:23:56.680Z,0.77
2018-05-03T11:26:00.728Z,0.50
2018-05-03T11:28:04.588Z,1.07
2018-05-03T11:30:08.431Z,1.13
2018-05-03T11:32:12.345Z,1.50
2018-05-03T11:34:16.492Z,0.40
2018-05-03T11:36:21.218Z,1.80
2018-05-03T11:38:25.080Z,0.97
2018-05-03T11:40:29.493Z,0.87
2018-05-03T11:42:33.351Z,0.67
2018-05-03T11:45:06.006Z,0.73
2018-05-03T11:47:10.973Z,0.20
2018-05-03T11:49:14.974Z,1.37
2018-05-03T11:51:18.748Z,0.87
2018-05-03T11:53:23.359Z,0.70
2018-05-03T11:55:28.014Z,1.13
2018-05-03T11:57:31.930Z,1.17
2018-05-03T11:59:36.583Z,0.50
2018-05-03T12:01:40.542Z,0.40
2018-05-03T12:03:45.327Z,1.07
2018-05-03T12:05:51.357Z,1.73
2018-05-03T12:07:55.349Z,1.60
2018-05-03T12:09:59.174Z,0.30
2018-05-03T12:12:03.425Z,0.80
2018-05-03T12:14:08.095Z,0.17
2018-05-03T12:16:12.606Z,0.70
2018-05-03T12:18:16.743Z,1.03
2018-05-03T12:20:20.603Z,1.07
2018-05-03T12:22:25.237Z,0.93
2018-05-03T12:24:30.555Z,1.00
2018-05-03T12:26:34.506Z,0.33
2018-05-03T12:28:38.977Z,0.60
2018-05-03T12:30:44.028Z,0.70
2018-05-03T12:32:47.952Z,0.57
2018-05-03T12:34:52.506Z,0.37
2018-05-03T12:36:56.772Z,1.00
2018-05-03T12:39:00.671Z,0.63
2018-05-03T12:41:04.629Z,0.57
2018-05-03T12:43:09.377Z,1.90
2018-05-03T12:45:15.478Z,0.33
2018-05-03T12:47:19.412Z,0.30
2018-05-03T12:49:23.554Z,0.37
2018-05-03T12:51:27.614Z,0.20
2018-05-03T12:53:31.659Z,1.70
2018-05-03T12:55:35.838Z,0.67
2018-05-03T12:57:40.309Z,0.27
2018-05-03T12:59:44.870Z,1.30
2018-05-03T13:01:51.875Z,0.63
2018-05-03T13:03:55.784Z,1.03
2018-05-03T13:06:00.614Z,2.47
2018-05-03T13:08:07.653Z,0.53
2018-05-03T13:10:11.775Z,1.13
2018-05-03T13:12:16.310Z,0.33
2018-05-03T13:14:21.455Z,0.13
2018-05-03T13:16:26.105Z,0.20
2018-05-03T13:18:30.853Z,0.20
2018-05-03T13:20:34.983Z,1.27
2018-05-03T13:22:39.841Z,0.10
2018-05-03T13:24:43.663Z,1.20
2018-05-03T13:26:47.806Z,0.50
2018-05-03T13:28:52.695Z,0.90
2018-05-03T13:30:56.653Z,0.40
2018-05-03T13:33:00.874Z,0.47
2018-05-03T13:35:04.831Z,0.23
2018-05-03T13:37:08.641Z,0.60
2018-05-03T13:39:12.565Z,0.63
2018-05-03T13:41:20.542Z,0.20
2018-05-03T13:43:24.796Z,0.43
2018-05-03T13:45:32.685Z,0.27
2018-05-03T13:47:36.582Z,0.97
2018-05-03T13:49:41.263Z,0.33
2018-05-03T13:51:46.484Z,0.80
2018-05-03T13:53:50.392Z,0.70
2018-05-03T13:55:54.353Z,0.80
2018-05-03T13:57:59.186Z,0.30
2018-05-03T14:00:05.938Z,0.30
2018-05-03T14:02:09.836Z,1.20
2018-05-03T14:04:13.816Z,0.20
2018-05-03T14:06:17.965Z,1.07
2018-05-03T14:08:22.209Z,0.30
2018-05-03T14:10:26.396Z,0.50
2018-05-03T14:12:30.996Z,1.13
2018-05-03T14:14:34.798Z,0.60
2018-05-03T14:16:40.127Z,0.67
2018-05-03T14:18:43.993Z,0.93
2018-05-03T14:20:47.914Z,1.03
2018-05-03T14:22:52.489Z,0.40
2018-05-03T14:24:57.166Z,0.43
2018-05-03T14:27:01.094Z,0.70
2018-05-03T14:29:05.044Z,0.50
2018-05-03T14:31:08.923Z,0.50
2018-05-03T14:33:12.930Z,0.60
2018-05-03T14:35:17.813Z,1.03
2018-05-03T14:37:21.765Z,1.40
2018-05-03T14:39:25.599Z,1.00
2018-05-03T14:41:29.807Z,1.33
2018-05-03T14:43:34.419Z,0.63
2018-05-03T14:45:38.522Z,0.70
2018-05-03T14:47:43.477Z,0.40
2018-05-03T14:49:48.054Z,0.37
2018-05-03T14:51:53.304Z,0.67
2018-05-03T14:53:57.169Z,0.80
2018-05-03T14:56:01.157Z,0.30
2018-05-03T14:58:05.857Z,0.33
2018-05-03T15:00:10.527Z,0.10
2018-05-03T15:02:14.400Z,0.30
2018-05-03T15:04:18.277Z,1.70
2018-05-03T15:06:23.321Z,0.10
2018-05-03T15:08:28.044Z,0.30
2018-05-03T15:10:31.951Z,0.50
2018-05-03T15:12:38.006Z,0.50
2018-05-03T15:14:44.355Z,0.53
2018-05-03T15:16:50.282Z,0.30
2018-05-03T15:18:59.446Z,0.80
2018-05-03T15:21:07.207Z,0.77
2018-05-03T15:23:11.459Z,0.63
2018-05-03T15:25:18.015Z,0.63
2018-05-03T15:27:24.261Z,0.50
2018-05-03T15:29:34.143Z,0.43
2018-05-03T15:31:39.511Z,0.40
2018-05-03T15:33:44.746Z,1.10
2018-05-03T15:35:49.551Z,0.47
2018-05-03T15:37:53.556Z,0.10
2018-05-03T15:39:58.253Z,0.30
2018-05-03T15:42:02.208Z,0.50
2018-05-03T15:44:06.096Z,0.67
2018-05-03T15:46:10.685Z,0.20
2018-05-03T15:48:15.509Z,0.40
2018-05-03T15:50:19.458Z,0.60
2018-05-03T15:52:24.647Z,0.43
2018-05-03T15:54:29.338Z,0.23
2018-05-03T15:56:33.594Z,0.53
2018-05-03T15:58:38.900Z,0.50
2018-05-03T16:00:42.809Z,0.40
2018-05-03T16:02:46.805Z,0.37
2018-05-03T16:04:51.404Z,0.30
2018-05-03T16:06:55.584Z,0.60
2018-05-03T16:08:59.791Z,0.50
2018-05-03T16:11:05.068Z,0.60
2018-05-03T16:13:08.951Z,0.70
2018-05-03T16:15:15.095Z,0.53
2018-05-03T16:17:20.157Z,0.80
2018-05-03T16:19:24.249Z,0.40
2018-05-03T16:21:29.173Z,0.53
2018-05-03T16:23:34.215Z,0.40
2018-05-03T16:25:40.435Z,0.80
2018-05-03T16:27:45.260Z,0.30
2018-05-03T16:29:55.678Z,0.60
2018-05-03T16:32:01.585Z,0.20
2018-05-03T16:34:06.622Z,0.20
2018-05-03T16:36:11.259Z,0.27
2018-05-03T16:38:16.287Z,0.30
2018-05-03T16:40:21.170Z,0.40
2018-05-03T16:42:25.330Z,0.50
2018-05-03T16:44:34.743Z,0.50
2018-05-03T16:46:38.539Z,0.33
2018-05-03T16:48:43.203Z,0.30
2018-05-03T16:50:47.200Z,0.40
2018-05-03T16:52:51.334Z,0.20
2018-05-03T16:54:55.197Z,0.60
2018-05-03T16:56:59.863Z,0.30
2018-05-03T16:59:03.858Z,0.70
2018-05-03T17:01:08.272Z,1.57
2018-05-03T17:03:13.325Z,0.30
2018-05-03T17:05:17.385Z,0.10
2018-05-03T17:07:21.951Z,0.20
2018-05-03T17:09:25.926Z,0.10
2018-05-03T17:11:30.712Z,0.53
2018-05-03T17:13:35.878Z,0.73
2018-05-03T17:15:40.152Z,0.50
2018-05-03T17:17:44.133Z,0.30
2018-05-03T17:19:48.139Z,0.60
2018-05-03T17:21:52.203Z,0.80
2018-05-03T17:23:56.057Z,0.50
2018-05-03T17:26:00.162Z,1.23
2018-05-03T17:28:04.143Z,0.90
2018-05-03T17:30:10.060Z,0.10
2018-05-03T17:32:16.561Z,0.20
2018-05-03T17:34:20.556Z,0.30
2018-05-03T17:36:24.880Z,0.53
2018-05-03T17:38:30.390Z,0.40
2018-05-03T17:40:36.010Z,0.30
2018-05-03T17:42:39.957Z,0.27
2018-05-03T17:44:43.864Z,0.63
2018-05-03T17:46:49.739Z,0.10
2018-05-03T17:48:54.836Z,1.07
2018-05-03T17:51:00.492Z,0.53
2018-05-03T17:53:05.300Z,0.20
2018-05-03T17:55:09.286Z,1.10
2018-05-03T17:57:15.186Z,0.63
2018-05-03T17:59:19.190Z,0.37
2018-05-03T18:01:24.923Z,0.03
2018-05-03T18:03:32.919Z,0.10
2018-05-03T18:05:42.885Z,0.20
2018-05-03T18:07:48.807Z,0.43
2018-05-03T18:09:53.389Z,1.73
2018-05-03T18:11:59.390Z,0.10
2018-05-03T18:14:05.016Z,1.17
2018-05-03T18:16:10.351Z,1.20
2018-05-03T18:18:15.121Z,0.43
2018-05-03T18:20:19.132Z,0.60
2018-05-03T18:22:25.578Z,0.83
2018-05-03T18:24:29.523Z,0.50
2018-05-03T18:26:33.613Z,0.00
2018-05-03T18:28:37.905Z,1.03
2018-05-03T18:30:41.864Z,1.67
2018-05-03T18:32:46.099Z,0.30
2018-05-03T18:34:52.165Z,0.30
2018-05-03T18:36:56.095Z,0.60
2018-05-03T18:39:00.944Z,0.20
2018-05-03T18:41:07.782Z,0.20
2018-05-03T18:43:12.898Z,0.30
2018-05-03T18:45:17.032Z,0.77
2018-05-03T18:47:22.218Z,0.50
2018-05-03T18:49:26.178Z,1.17
2018-05-03T18:51:30.183Z,0.87
2018-05-03T18:53:34.406Z,0.10
2018-05-03T18:55:38.358Z,0.57
2018-05-03T18:57:42.970Z,1.53
2018-05-03T18:59:47.583Z,1.07
2018-05-03T19:01:51.540Z,0.73
2018-05-03T19:03:55.590Z,0.77
2018-05-03T19:06:00.778Z,0.70
2018-05-03T19:08:04.922Z,0.17
2018-05-03T19:10:08.480Z,0.23
2018-05-03T19:12:12.689Z,0.77
2018-05-03T19:14:17.473Z,0.77
2018-05-03T19:16:21.382Z,0.40
2018-05-03T19:18:25.600Z,0.30
2018-05-03T19:20:29.472Z,0.60
2018-05-03T19:22:33.352Z,0.50
2018-05-03T19:24:37.666Z,0.40
2018-05-03T19:26:41.563Z,0.87
2018-05-03T19:28:45.469Z,0.73
2018-05-03T19:30:50.237Z,0.70
2018-05-03T19:32:54.638Z,0.63
2018-05-03T19:34:59.351Z,0.30
2018-05-03T19:37:11.142Z,0.40
2018-05-03T19:39:15.039Z,0.47
2018-05-03T19:41:19.002Z,0.40
2018-05-03T19:43:23.768Z,0.47
2018-05-03T19:45:27.707Z,0.33
2018-05-03T19:47:31.565Z,0.67
2018-05-03T19:49:36.673Z,0.70
2018-05-03T19:51:40.553Z,0.10
2018-05-03T19:53:44.414Z,1.37
2018-05-03T19:55:49.348Z,0.60
2018-05-03T19:57:53.329Z,0.63
2018-05-03T19:59:58.135Z,0.30
2018-05-03T20:02:04.294Z,0.47
2018-05-03T20:04:08.880Z,1.10
2018-05-03T20:06:12.813Z,0.40
2018-05-03T20:08:17.862Z,0.50
2018-05-03T20:10:21.791Z,0.33
2018-05-03T20:12:26.710Z,0.33
2018-05-03T20:14:31.332Z,0.53
2018-05-03T20:16:35.836Z,0.57
2018-05-03T20:18:40.130Z,0.30
2018-05-03T20:20:45.344Z,0.40
2018-05-03T20:22:50.386Z,0.60
2018-05-03T20:24:54.813Z,0.30
2018-05-03T20:26:58.741Z,0.40
2018-05-03T20:29:02.761Z,0.40
2018-05-03T20:31:06.693Z,0.50
2018-05-03T20:33:11.684Z,0.40
2018-05-03T20:35:15.590Z,0.17
2018-05-03T20:37:19.758Z,0.50
2018-05-03T20:39:24.325Z,1.07
2018-05-03T20:41:29.025Z,0.50
2018-05-03T20:43:33.702Z,0.77
2018-05-03T20:45:37.535Z,0.63
2018-05-03T20:47:41.464Z,0.60
2018-05-03T20:49:45.321Z,0.20
2018-05-03T20:51:51.337Z,0.30
2018-05-03T20:53:56.846Z,0.70
2018-05-03T20:56:01.088Z,0.37
2018-05-03T20:58:06.088Z,0.70
2018-05-03T21:00:10.105Z,0.97
2018-05-03T21:02:14.830Z,0.90
2018-05-03T21:04:19.151Z,0.50
2018-05-03T21:06:24.098Z,0.40
2018-05-03T21:08:29.050Z,0.60
2018-05-03T21:10:33.359Z,1.03
2018-05-03T21:12:37.256Z,0.53
2018-05-03T21:14:41.229Z,0.13
2018-05-03T21:16:46.125Z,0.30
2018-05-03T21:18:50.759Z,0.50
2018-05-03T21:20:55.026Z,0.30
2018-05-03T21:22:59.145Z,1.10
2018-05-03T21:25:03.623Z,0.53
2018-05-03T21:27:07.496Z,0.40
2018-05-03T21:29:12.513Z,0.30
2018-05-03T21:31:16.393Z,0.93
2018-05-03T21:33:20.389Z,1.57
2018-05-03T21:35:25.610Z,0.60
2018-05-03T21:37:29.494Z,0.90
2018-05-03T21:39:34.195Z,0.57
2018-05-03T21:41:38.184Z,1.40
2018-05-03T21:43:42.008Z,0.80
2018-05-03T21:45:45.812Z,0.93
2018-05-03T21:47:50.826Z,0.47
2018-05-03T21:49:55.557Z,0.60
2018-05-03T21:51:59.438Z,0.37
2018-05-03T21:54:04.598Z,1.20
2018-05-03T21:56:08.491Z,0.20
2018-05-03T21:58:12.325Z,1.13
2018-05-03T22:00:16.459Z,1.57
2018-05-03T22:02:21.295Z,0.43
2018-05-03T22:04:25.293Z,0.90
2018-05-03T22:06:29.200Z,0.50
2018-05-03T22:08:33.101Z,1.70
2018-05-03T22:10:36.935Z,0.60
2018-05-03T22:12:41.142Z,0.80
2018-05-03T22:14:45.024Z,0.70
2018-05-03T22:16:48.846Z,0.50
2018-05-03T22:18:53.703Z,0.47
2018-05-03T22:20:57.546Z,0.57
2018-05-03T22:23:01.640Z,1.00
2018-05-03T22:25:08.769Z,2.30
2018-05-03T22:27:12.783Z,1.10
2018-05-03T22:29:16.626Z,0.67
2018-05-03T22:31:21.365Z,1.70
2018-05-03T22:33:26.587Z,0.30
2018-05-03T22:35:30.426Z,0.47
2018-05-03T22:37:34.237Z,1.07
2018-05-03T22:39:38.181Z,0.77
2018-05-03T22:41:42.018Z,1.47
2018-05-03T22:43:47.972Z,1.20
2018-05-03T22:45:52.643Z,0.60
2018-05-03T22:47:56.472Z,0.50
2018-05-03T22:50:01.021Z,0.50
2018-05-03T22:52:07.370Z,0.90
2018-05-03T22:54:11.440Z,0.53
2018-05-03T22:56:15.790Z,1.27
2018-05-03T22:58:19.656Z,0.80
2018-05-03T23:00:23.518Z,0.53
2018-05-03T23:02:28.284Z,1.30
2018-05-03T23:04:32.232Z,1.20
2018-05-03T23:06:36.148Z,1.03
2018-05-03T23:08:41.152Z,0.40
2018-05-03T23:10:44.981Z,0.60
2018-05-03T23:12:48.856Z,0.87
2018-05-03T23:14:53.002Z,0.97
2018-05-03T23:16:57.593Z,0.60
2018-05-03T23:19:02.388Z,0.70
2018-05-03T23:21:08.551Z,1.07
2018-05-03T23:23:12.425Z,0.80
2018-05-03T23:25:17.166Z,0.93
2018-05-03T23:27:21.614Z,0.60
2018-05-03T23:29:26.030Z,0.73
2018-05-03T23:31:29.921Z,1.00
2018-05-03T23:33:34.330Z,0.73
2018-05-03T23:35:38.189Z,0.40
2018-05-03T23:37:42.012Z,0.93
2018-05-03T23:39:47.120Z,0.80
2018-05-03T23:41:51.988Z,0.50
2018-05-03T23:43:55.832Z,1.37
2018-05-03T23:46:01.223Z,0.80
2018-05-03T23:48:05.087Z,0.60
2018-05-03T23:50:08.912Z,1.23
2018-05-03T23:52:13.613Z,0.57
2018-05-03T23:54:17.525Z,0.93
2018-05-03T23:56:21.376Z,0.97
2018-05-03T23:58:25.660Z,0.20
